createdAt,value
2019-02-20T00:00:41.802Z,99.90
2019-02-20T00:03:10.657Z,99.90
2019-02-20T00:05:39.549Z,99.90
2019-02-20T00:08:08.535Z,99.90
2019-02-20T00:10:37.402Z,99.90
2019-02-20T00:13:06.243Z,99.90
2019-02-20T00:15:35.252Z,99.90
2019-02-20T00:18:04.265Z,99.90
2019-02-20T00:20:33.211Z,99.90
2019-02-20T00:23:02.267Z,99.90
2019-02-20T00:25:31.134Z,99.90
2019-02-20T00:28:00.049Z,99.90
2019-02-20T00:30:31.250Z,99.90
2019-02-20T00:33:00.154Z,99.90
2019-02-20T00:35:30.238Z,99.90
2019-02-20T00:37:59.237Z,99.90
2019-02-20T00:40:30.918Z,99.90
2019-02-20T00:42:59.863Z,99.90
2019-02-20T00:45:39.350Z,99.90
2019-02-20T00:48:13.929Z,99.90
2019-02-20T00:50:44.365Z,99.90
2019-02-20T00:53:20.835Z,99.90
2019-02-20T00:55:49.705Z,99.90
2019-02-20T00:58:18.546Z,99.90
2019-02-20T01:00:47.512Z,99.90
2019-02-20T01:03:16.473Z,99.90
2019-02-20T01:05:45.398Z,99.90
2019-02-20T01:08:14.329Z,99.90
2019-02-20T01:10:43.210Z,99.90
2019-02-20T01:13:12.061Z,99.90
2019-02-20T01:15:40.996Z,99.90
2019-02-20T01:18:11.837Z,99.90
2019-02-20T01:20:40.466Z,99.90
2019-02-20T01:23:09.390Z,99.90
2019-02-20T01:25:38.321Z,99.90
2019-02-20T01:28:07.309Z,99.90
2019-02-20T01:30:36.214Z,99.90
2019-02-20T01:33:05.165Z,99.90
2019-02-20T01:35:34.089Z,99.90
2019-02-20T01:38:03.024Z,99.90
2019-02-20T01:40:31.912Z,99.90
2019-02-20T01:43:00.780Z,99.90
2019-02-20T01:45:30.756Z,99.90
2019-02-20T01:47:59.623Z,99.90
2019-02-20T01:50:28.633Z,99.90
2019-02-20T01:52:57.559Z,99.90
2019-02-20T01:55:26.539Z,99.90
2019-02-20T01:57:55.409Z,99.90
2019-02-20T02:00:26.049Z,99.90
2019-02-20T02:02:55.035Z,99.90
2019-02-20T02:05:24.000Z,99.90
2019-02-20T02:07:52.872Z,99.90
2019-02-20T02:10:21.798Z,99.90
2019-02-20T02:12:50.760Z,99.90
2019-02-20T02:15:20.783Z,99.90
2019-02-20T02:17:49.793Z,99.90
2019-02-20T02:20:18.751Z,99.90
2019-02-20T02:22:50.815Z,99.90
2019-02-20T02:25:19.869Z,99.90
2019-02-20T02:27:48.866Z,99.90
2019-02-20T02:30:19.304Z,99.90
2019-02-20T02:32:48.238Z,99.90
2019-02-20T02:35:17.178Z,99.90
2019-02-20T02:37:50.038Z,99.90
2019-02-20T02:40:18.945Z,99.90
2019-02-20T02:42:47.972Z,99.90
2019-02-20T02:45:16.945Z,99.90
2019-02-20T02:47:45.933Z,99.90
2019-02-20T02:50:14.851Z,99.90
2019-02-20T02:52:43.759Z,99.90
2019-02-20T02:55:12.673Z,99.90
2019-02-20T02:57:41.663Z,99.90
2019-02-20T03:00:12.401Z,99.90
2019-02-20T03:02:41.411Z,99.90
2019-02-20T03:05:10.316Z,99.90
2019-02-20T03:07:39.275Z,99.90
2019-02-20T03:10:08.719Z,99.90
2019-02-20T03:12:37.601Z,99.90
2019-02-20T03:15:08.653Z,99.90
2019-02-20T03:17:37.639Z,99.90
2019-02-20T03:20:10.775Z,99.90
2019-02-20T03:22:39.619Z,99.90
2019-02-20T03:25:08.562Z,99.90
2019-02-20T03:27:37.457Z,99.90
2019-02-20T03:30:07.772Z,99.90
2019-02-20T03:32:36.706Z,99.90
2019-02-20T03:35:06.772Z,99.90
2019-02-20T03:37:42.658Z,99.90
2019-02-20T03:40:11.627Z,99.90
2019-02-20T03:42:40.734Z,99.90
2019-02-20T03:45:09.637Z,99.90
2019-02-20T03:47:38.839Z,99.90
2019-02-20T03:50:07.908Z,99.90
2019-02-20T03:52:36.794Z,99.90
2019-02-20T03:55:06.878Z,99.90
2019-02-20T03:57:38.323Z,99.90
2019-02-20T04:00:09.570Z,99.90
2019-02-20T04:02:38.505Z,99.90
2019-02-20T04:05:07.547Z,99.90
2019-02-20T04:07:36.415Z,99.90
2019-02-20T04:10:06.241Z,99.90
2019-02-20T04:12:37.503Z,99.90
2019-02-20T04:15:07.617Z,99.90
2019-02-20T04:17:36.605Z,99.90
2019-02-20T04:20:07.285Z,99.90
2019-02-20T04:22:36.216Z,99.90
2019-02-20T04:25:06.153Z,99.90
2019-02-20T04:27:35.190Z,99.90
2019-02-20T04:30:05.576Z,99.90
2019-02-20T04:32:34.463Z,99.90
2019-02-20T04:35:03.388Z,99.90
2019-02-20T04:37:32.304Z,99.90
2019-02-20T04:40:01.226Z,99.90
2019-02-20T04:42:30.230Z,99.90
2019-02-20T04:44:59.137Z,99.90
2019-02-20T04:47:28.051Z,99.90
2019-02-20T04:49:56.963Z,99.90
2019-02-20T04:52:25.924Z,99.90
2019-02-20T04:54:54.799Z,99.90
2019-02-20T04:57:23.763Z,99.90
2019-02-20T04:59:52.715Z,99.90
2019-02-20T05:02:21.649Z,99.90
2019-02-20T05:04:50.581Z,99.90
2019-02-20T05:07:19.606Z,99.90
2019-02-20T05:09:48.582Z,99.90
2019-02-20T05:12:17.597Z,99.90
2019-02-20T05:14:48.043Z,99.90
2019-02-20T05:17:17.036Z,99.90
2019-02-20T05:19:45.978Z,99.90
2019-02-20T05:22:16.350Z,99.90
2019-02-20T05:24:45.317Z,99.90
2019-02-20T05:27:14.318Z,99.90
2019-02-20T05:29:43.167Z,99.90
2019-02-20T05:32:12.001Z,99.90
2019-02-20T05:34:40.983Z,99.90
2019-02-20T05:37:09.921Z,99.90
2019-02-20T05:39:38.771Z,99.90
2019-02-20T05:42:07.780Z,99.90
2019-02-20T05:44:36.746Z,99.90
2019-02-20T05:47:05.642Z,99.90
2019-02-20T05:49:34.588Z,99.90
2019-02-20T05:52:03.560Z,99.90
2019-02-20T05:54:34.999Z,99.90
2019-02-20T05:57:04.045Z,99.90
2019-02-20T05:59:34.444Z,99.90
2019-02-20T06:02:03.713Z,99.90
2019-02-20T06:04:32.689Z,99.90
2019-02-20T06:07:01.651Z,99.90
2019-02-20T06:09:30.699Z,99.90
2019-02-20T06:11:59.569Z,99.90
2019-02-20T06:14:28.544Z,99.90
2019-02-20T06:16:57.478Z,99.90
2019-02-20T06:19:26.357Z,99.90
2019-02-20T06:21:55.314Z,99.90
2019-02-20T06:24:27.589Z,99.90
2019-02-20T06:26:56.606Z,99.90
2019-02-20T06:29:25.583Z,99.90
2019-02-20T06:31:54.623Z,99.90
2019-02-20T06:34:23.545Z,99.90
2019-02-20T06:36:52.488Z,99.90
2019-02-20T06:39:22.938Z,99.90
2019-02-20T06:41:51.927Z,99.90
2019-02-20T06:44:20.826Z,99.90
2019-02-20T06:46:49.805Z,99.90
2019-02-20T06:49:19.924Z,99.90
2019-02-20T06:51:50.814Z,99.90
2019-02-20T06:54:19.798Z,99.90
2019-02-20T06:56:50.221Z,99.90
2019-02-20T06:59:19.476Z,99.90
2019-02-20T07:01:48.523Z,99.90
2019-02-20T07:04:19.723Z,99.90
2019-02-20T07:07:00.773Z,99.90
2019-02-20T07:09:56.766Z,99.90
2019-02-20T07:12:31.852Z,99.90
2019-02-20T07:15:30.738Z,99.90
2019-02-20T07:18:17.628Z,99.90
2019-02-20T07:21:07.603Z,99.90
2019-02-20T07:23:51.346Z,99.90
2019-02-20T07:26:28.992Z,99.90
2019-02-20T07:29:06.877Z,99.90
2019-02-20T07:31:35.840Z,99.90
2019-02-20T07:34:10.561Z,99.90
2019-02-20T07:36:39.783Z,99.90
2019-02-20T07:39:08.624Z,99.90
2019-02-20T07:41:38.348Z,99.90
2019-02-20T07:44:07.966Z,99.90
2019-02-20T07:46:37.122Z,99.90
2019-02-20T07:49:06.750Z,99.90
2019-02-20T07:51:39.577Z,99.90
2019-02-20T07:54:08.810Z,99.90
2019-02-20T07:56:37.717Z,99.90
2019-02-20T07:59:06.791Z,99.90
2019-02-20T08:01:35.739Z,99.90
2019-02-20T08:04:04.621Z,99.90
2019-02-20T08:06:33.574Z,99.90
2019-02-20T08:09:02.940Z,99.90
2019-02-20T08:11:36.182Z,99.90
2019-02-20T08:14:08.049Z,99.90
2019-02-20T08:16:37.064Z,99.90
2019-02-20T08:19:06.031Z,99.90
2019-02-20T08:21:34.955Z,99.90
2019-02-20T08:24:05.061Z,99.90
2019-02-20T08:26:34.000Z,99.90
2019-02-20T08:29:03.087Z,99.90
2019-02-20T08:31:32.063Z,99.90
2019-02-20T08:34:01.005Z,99.90
2019-02-20T08:36:31.423Z,99.90
2019-02-20T08:39:02.931Z,99.90
2019-02-20T08:41:31.355Z,99.90
2019-02-20T08:44:00.321Z,99.90
2019-02-20T08:46:29.418Z,99.90
2019-02-20T08:49:03.379Z,96.10
2019-02-20T08:51:32.119Z,79.60
2019-02-20T08:54:01.072Z,59.20
2019-02-20T08:56:30.557Z,50.50
2019-02-20T08:59:01.251Z,43.90
2019-02-20T09:01:31.845Z,41.50
2019-02-20T09:04:03.397Z,40.80
2019-02-20T09:06:32.525Z,39.50
2019-02-20T09:09:02.056Z,36.40
2019-02-20T09:11:31.518Z,33.50
2019-02-20T09:14:07.441Z,30.70
2019-02-20T09:16:36.623Z,28.90
2019-02-20T09:19:05.915Z,29.30
2019-02-20T09:21:35.811Z,27.70
2019-02-20T09:24:07.226Z,27.10
2019-02-20T09:26:37.074Z,26.50
2019-02-20T09:29:05.986Z,26.10
2019-02-20T09:31:34.973Z,26.30
2019-02-20T09:34:04.879Z,25.10
2019-02-20T09:36:34.018Z,23.50
2019-02-20T09:39:17.866Z,23.40
2019-02-20T09:41:47.516Z,22.50
2019-02-20T09:44:17.431Z,22.50
2019-02-20T09:46:49.742Z,21.80
2019-02-20T09:49:19.214Z,21.90
2019-02-20T09:51:49.234Z,22.60
2019-02-20T09:54:21.972Z,22.50
2019-02-20T09:56:53.449Z,21.70
2019-02-20T09:59:24.061Z,21.30
2019-02-20T10:01:53.618Z,21.40
2019-02-20T10:04:23.733Z,21.40
2019-02-20T10:06:53.338Z,20.70
2019-02-20T10:09:23.092Z,20.00
2019-02-20T10:11:52.294Z,19.80
2019-02-20T10:14:22.488Z,19.50
2019-02-20T10:16:54.319Z,19.10
2019-02-20T10:19:22.978Z,18.80
2019-02-20T10:21:57.156Z,18.70
2019-02-20T10:24:26.360Z,18.00
2019-02-20T10:27:00.580Z,18.20
2019-02-20T10:29:27.669Z,18.30
2019-02-20T10:31:57.828Z,18.40
2019-02-20T10:34:28.180Z,19.00
2019-02-20T10:36:58.069Z,18.10
2019-02-20T10:39:29.343Z,18.60
2019-02-20T10:41:59.418Z,18.80
2019-02-20T10:44:29.536Z,19.40
2019-02-20T10:46:59.841Z,20.30
2019-02-20T10:49:31.334Z,21.40
2019-02-20T10:52:02.676Z,21.50
2019-02-20T10:54:33.692Z,21.80
2019-02-20T10:57:02.675Z,22.10
2019-02-20T10:59:32.653Z,22.20
2019-02-20T11:02:03.630Z,23.20
2019-02-20T11:04:35.319Z,24.60
2019-02-20T11:07:08.908Z,24.90
2019-02-20T11:09:38.640Z,24.30
2019-02-20T11:12:08.410Z,25.40
2019-02-20T11:14:37.978Z,25.70
2019-02-20T11:17:08.301Z,25.70
2019-02-20T11:19:40.240Z,27.10
2019-02-20T11:22:16.147Z,28.50
2019-02-20T11:24:45.500Z,29.10
2019-02-20T11:27:19.590Z,29.20
2019-02-20T11:29:50.368Z,29.70
2019-02-20T11:32:23.193Z,30.10
2019-02-20T11:35:17.692Z,31.30
2019-02-20T11:37:38.633Z,29.90
2019-02-20T11:40:10.912Z,30.70
2019-02-20T11:42:43.991Z,32.10
2019-02-20T11:45:15.204Z,31.50
2019-02-20T11:47:48.067Z,32.90
2019-02-20T11:50:22.590Z,31.20
2019-02-20T11:52:52.670Z,31.90
2019-02-20T11:55:24.023Z,29.00
2019-02-20T11:58:00.474Z,25.70
2019-02-20T12:00:25.480Z,23.20
2019-02-20T12:03:01.009Z,21.80
2019-02-20T12:05:31.056Z,22.10
2019-02-20T12:08:03.584Z,22.20
2019-02-20T12:10:34.191Z,25.30
2019-02-20T12:13:04.908Z,27.00
2019-02-20T12:15:36.864Z,28.20
2019-02-20T12:18:06.862Z,28.70
2019-02-20T12:20:37.437Z,29.90
2019-02-20T12:23:07.858Z,31.20
2019-02-20T12:25:37.994Z,33.10
2019-02-20T12:28:08.296Z,34.00
2019-02-20T12:30:40.498Z,34.80
2019-02-20T12:33:10.894Z,35.00
2019-02-20T12:35:42.266Z,36.60
2019-02-20T12:38:12.066Z,36.20
2019-02-20T12:40:42.233Z,35.20
2019-02-20T12:43:12.557Z,36.60
2019-02-20T12:45:44.260Z,35.90
2019-02-20T12:48:16.836Z,35.90
2019-02-20T12:50:49.768Z,36.10
2019-02-20T12:53:21.620Z,37.20
2019-02-20T12:55:50.693Z,36.40
2019-02-20T12:58:23.278Z,37.80
2019-02-20T13:00:53.138Z,36.40
2019-02-20T13:03:22.233Z,35.90
2019-02-20T13:05:51.949Z,37.10
2019-02-20T13:08:21.999Z,35.70
2019-02-20T13:10:52.173Z,35.40
2019-02-20T13:13:22.785Z,36.00
2019-02-20T13:15:52.696Z,36.50
2019-02-20T13:18:25.397Z,37.20
2019-02-20T13:20:54.552Z,38.90
2019-02-20T13:23:25.869Z,39.30
2019-02-20T13:25:55.503Z,38.70
2019-02-20T13:28:25.013Z,39.50
2019-02-20T13:30:56.102Z,38.90
2019-02-20T13:33:25.977Z,38.20
2019-02-20T13:35:55.659Z,38.70
2019-02-20T13:38:25.111Z,39.20
2019-02-20T13:40:54.869Z,39.30
2019-02-20T13:43:25.324Z,39.10
2019-02-20T13:45:55.389Z,38.60
2019-02-20T13:48:25.267Z,40.20
2019-02-20T13:50:55.112Z,41.60
2019-02-20T13:53:24.939Z,41.80
2019-02-20T13:55:53.947Z,38.60
2019-02-20T13:58:24.440Z,38.80
2019-02-20T14:00:53.751Z,38.70
2019-02-20T14:03:26.955Z,39.10
2019-02-20T14:05:56.118Z,39.40
2019-02-20T14:08:28.746Z,40.20
2019-02-20T14:10:58.338Z,40.40
2019-02-20T14:13:31.063Z,42.10
2019-02-20T14:15:59.102Z,43.20
2019-02-20T14:18:28.913Z,42.30
2019-02-20T14:20:58.054Z,42.90
2019-02-20T14:23:30.737Z,43.50
2019-02-20T14:26:00.737Z,42.70
2019-02-20T14:28:30.374Z,42.70
2019-02-20T14:31:00.562Z,44.70
2019-02-20T14:33:30.984Z,45.70
2019-02-20T14:36:01.006Z,45.30
2019-02-20T14:38:32.046Z,45.70
2019-02-20T14:41:02.218Z,43.90
2019-02-20T14:43:32.055Z,43.70
2019-02-20T14:46:02.083Z,44.00
2019-02-20T14:48:31.137Z,44.00
2019-02-20T14:51:02.615Z,43.50
2019-02-20T14:53:40.074Z,43.00
2019-02-20T14:56:17.337Z,44.10
2019-02-20T14:58:48.767Z,44.20
2019-02-20T15:01:18.992Z,44.20
2019-02-20T15:03:48.839Z,42.80
2019-02-20T15:06:19.744Z,44.70
2019-02-20T15:08:49.366Z,44.50
2019-02-20T15:11:19.060Z,44.00
2019-02-20T15:13:48.956Z,45.10
2019-02-20T15:16:21.600Z,44.80
2019-02-20T15:18:54.073Z,44.80
2019-02-20T15:21:27.697Z,45.10
2019-02-20T15:23:57.686Z,45.10
2019-02-20T15:26:29.325Z,45.50
2019-02-20T15:29:00.210Z,45.60
2019-02-20T15:31:33.762Z,46.10
2019-02-20T15:34:02.412Z,45.70
2019-02-20T15:36:34.570Z,46.30
2019-02-20T15:39:05.106Z,47.90
2019-02-20T15:41:34.594Z,48.50
2019-02-20T15:44:08.383Z,50.20
2019-02-20T15:46:41.678Z,50.70
2019-02-20T15:49:12.865Z,52.00
2019-02-20T15:51:42.460Z,52.80
2019-02-20T15:54:13.021Z,53.30
2019-02-20T15:56:44.405Z,54.80
2019-02-20T15:59:14.037Z,56.50
2019-02-20T16:01:44.276Z,57.20
2019-02-20T16:04:13.722Z,59.40
2019-02-20T16:06:44.440Z,61.00
2019-02-20T16:09:14.329Z,62.90
2019-02-20T16:11:44.304Z,65.10
2019-02-20T16:14:13.359Z,67.90
2019-02-20T16:16:43.796Z,69.30
2019-02-20T16:19:13.685Z,72.00
2019-02-20T16:21:42.705Z,74.60
2019-02-20T16:24:14.959Z,79.00
2019-02-20T16:26:44.670Z,82.00
2019-02-20T16:29:16.062Z,83.80
2019-02-20T16:31:47.019Z,85.70
2019-02-20T16:34:18.618Z,86.90
2019-02-20T16:36:51.456Z,88.30
2019-02-20T16:39:20.428Z,90.00
2019-02-20T16:41:49.362Z,90.70
2019-02-20T16:44:21.898Z,91.70
2019-02-20T16:46:55.808Z,92.40
2019-02-20T16:49:25.746Z,93.20
2019-02-20T16:51:55.468Z,93.90
2019-02-20T16:54:25.968Z,94.60
2019-02-20T16:56:56.543Z,95.20
2019-02-20T16:59:28.095Z,95.50
2019-02-20T17:01:58.491Z,95.80
2019-02-20T17:04:28.501Z,96.00
2019-02-20T17:07:04.743Z,96.20
2019-02-20T17:09:33.817Z,96.90
2019-02-20T17:12:04.542Z,97.80
2019-02-20T17:14:37.710Z,98.60
2019-02-20T17:17:07.637Z,99.30
2019-02-20T17:19:37.094Z,99.60
2019-02-20T17:22:06.337Z,99.70
2019-02-20T17:24:36.378Z,99.60
2019-02-20T17:27:05.774Z,99.80
2019-02-20T17:29:34.913Z,99.90
2019-02-20T17:32:03.837Z,99.90
2019-02-20T17:34:32.794Z,99.90
2019-02-20T17:37:02.058Z,99.90
2019-02-20T17:39:31.217Z,99.90
2019-02-20T17:42:01.897Z,99.90
2019-02-20T17:44:30.855Z,99.90
2019-02-20T17:46:59.866Z,99.90
2019-02-20T17:49:28.852Z,99.90
2019-02-20T17:51:57.742Z,99.90
2019-02-20T17:54:30.764Z,99.90
2019-02-20T17:56:59.569Z,99.90
2019-02-20T17:59:28.458Z,99.90
2019-02-20T18:01:58.506Z,99.90
2019-02-20T18:04:27.592Z,99.90
2019-02-20T18:06:58.126Z,99.90
2019-02-20T18:09:27.093Z,99.90
2019-02-20T18:11:56.044Z,99.90
2019-02-20T18:14:25.005Z,99.90
2019-02-20T18:16:53.955Z,99.90
2019-02-20T18:19:22.934Z,99.90
2019-02-20T18:21:51.953Z,99.90
2019-02-20T18:24:20.954Z,99.90
2019-02-20T18:26:49.922Z,99.90
2019-02-20T18:29:18.826Z,99.90
2019-02-20T18:31:50.814Z,99.90
2019-02-20T18:34:19.699Z,99.90
2019-02-20T18:36:48.679Z,99.90
2019-02-20T18:39:24.457Z,99.90
2019-02-20T18:41:53.293Z,99.90
2019-02-20T18:44:22.293Z,99.90
2019-02-20T18:46:51.239Z,99.90
2019-02-20T18:49:21.163Z,99.90
2019-02-20T18:51:52.939Z,99.90
2019-02-20T18:54:22.824Z,99.90
2019-02-20T18:56:51.720Z,99.90
2019-02-20T18:59:20.657Z,99.90
2019-02-20T19:01:49.556Z,99.90
2019-02-20T19:04:20.060Z,99.90
2019-02-20T19:06:49.041Z,99.90
2019-02-20T19:09:21.389Z,99.90
2019-02-20T19:11:57.446Z,99.90
2019-02-20T19:14:43.954Z,99.90
2019-02-20T19:17:38.147Z,99.90
2019-02-20T19:20:15.998Z,99.90
2019-02-20T19:22:50.528Z,99.90
2019-02-20T19:25:46.135Z,99.90
2019-02-20T19:28:20.592Z,99.90
2019-02-20T19:31:11.941Z,99.90
2019-02-20T19:34:01.223Z,99.90
2019-02-20T19:36:33.100Z,99.90
2019-02-20T19:39:20.207Z,99.90
2019-02-20T19:42:18.670Z,99.90
2019-02-20T19:45:02.502Z,99.90
2019-02-20T19:47:57.974Z,99.90
2019-02-20T19:50:44.319Z,99.90
2019-02-20T19:53:23.038Z,99.90
2019-02-20T19:56:11.447Z,99.90
2019-02-20T19:59:05.557Z,99.90
2019-02-20T20:01:58.553Z,99.90
2019-02-20T20:04:58.986Z,99.90
2019-02-20T20:07:33.642Z,99.90
2019-02-20T20:10:16.901Z,99.90
2019-02-20T20:12:57.508Z,99.90
2019-02-20T20:15:38.185Z,99.90
2019-02-20T20:18:29.107Z,99.90
2019-02-20T20:21:09.556Z,99.90
2019-02-20T20:23:48.235Z,99.90
2019-02-20T20:26:38.852Z,99.90
2019-02-20T20:29:25.611Z,99.90
2019-02-20T20:32:25.310Z,99.90
2019-02-20T20:35:15.677Z,99.90
2019-02-20T20:37:55.083Z,99.90
2019-02-20T20:40:41.408Z,99.90
2019-02-20T20:43:13.408Z,99.90
2019-02-20T20:45:50.838Z,99.90
2019-02-20T20:48:38.812Z,99.90
2019-02-20T20:51:32.990Z,99.90
2019-02-20T20:54:28.437Z,99.90
2019-02-20T20:57:19.359Z,99.90
2019-02-20T21:00:10.426Z,99.90
2019-02-20T21:02:42.356Z,99.90
2019-02-20T21:05:33.195Z,99.90
2019-02-20T21:08:10.951Z,99.90
2019-02-20T21:10:57.495Z,99.90
2019-02-20T21:13:53.267Z,99.90
2019-02-20T21:16:25.147Z,99.90
2019-02-20T21:19:21.474Z,99.90
2019-02-20T21:22:06.156Z,99.90
2019-02-20T21:24:43.363Z,99.90
2019-02-20T21:27:33.100Z,99.90
2019-02-20T21:30:27.176Z,99.90
2019-02-20T21:32:59.014Z,99.90
2019-02-20T21:35:39.347Z,99.90
2019-02-20T21:38:13.979Z,99.90
2019-02-20T21:40:57.717Z,99.90
2019-02-20T21:43:53.306Z,99.90
2019-02-20T21:46:47.649Z,99.90
2019-02-20T21:49:49.345Z,99.90
2019-02-20T21:52:48.167Z,99.90
2019-02-20T21:55:36.290Z,99.90
2019-02-20T21:58:16.830Z,99.90
2019-02-20T22:00:57.056Z,99.90
2019-02-20T22:03:40.382Z,99.90
2019-02-20T22:06:19.379Z,99.90
2019-02-20T22:09:11.907Z,99.90
2019-02-20T22:11:49.370Z,99.90
2019-02-20T22:14:28.346Z,99.90
2019-02-20T22:17:18.032Z,99.90
2019-02-20T22:20:06.137Z,99.90
2019-02-20T22:23:03.528Z,99.90
2019-02-20T22:25:46.408Z,99.90
2019-02-20T22:28:38.220Z,99.90
2019-02-20T22:31:27.768Z,99.90
2019-02-20T22:34:11.597Z,99.90
2019-02-20T22:36:50.503Z,99.90
2019-02-20T22:39:25.054Z,99.90
2019-02-20T22:42:14.808Z,99.90
2019-02-20T22:44:56.662Z,99.90
2019-02-20T22:47:36.855Z,99.90
2019-02-20T22:50:17.477Z,99.90
2019-02-20T22:53:00.694Z,99.90
2019-02-20T22:55:50.644Z,99.90
2019-02-20T22:58:22.487Z,99.90
2019-02-20T23:01:06.503Z,99.90
2019-02-20T23:03:56.000Z,99.90
2019-02-20T23:06:42.572Z,99.90
2019-02-20T23:09:38.048Z,99.90
2019-02-20T23:12:24.675Z,99.90
2019-02-20T23:14:57.339Z,99.90
2019-02-20T23:17:27.382Z,99.90
2019-02-20T23:19:56.657Z,99.90
2019-02-20T23:22:25.617Z,99.90
2019-02-20T23:24:54.516Z,99.90
2019-02-20T23:27:23.380Z,99.90
2019-02-20T23:29:52.395Z,99.90
2019-02-20T23:32:21.288Z,99.90
2019-02-20T23:34:50.261Z,99.90
2019-02-20T23:37:21.616Z,99.90
2019-02-20T23:39:50.517Z,99.90
2019-02-20T23:42:19.434Z,99.90
2019-02-20T23:44:48.442Z,99.90
2019-02-20T23:47:17.484Z,99.90
2019-02-20T23:49:46.443Z,99.90
2019-02-20T23:52:15.346Z,99.90
2019-02-20T23:54:44.382Z,99.90
2019-02-20T23:57:13.361Z,99.90
2019-02-20T23:59:43.506Z,99.90
